sensor_id;sensor_type;location;lat;lon;timestamp;pressure;altitude;pressure_sealevel;temperature;humidity
61018;BME280;48171;51.550;5.434;2023-04-27T00:00:01;102064.69;;;5.60;75.83
61018;BME280;48171;51.550;5.434;2023-04-27T00:02:28;102065.53;;;5.59;76.32
61018;BME280;48171;51.550;5.434;2023-04-27T00:04:53;102052.75;;;5.43;76.43
61018;BME280;48171;51.550;5.434;2023-04-27T00:07:23;102066.84;;;5.47;76.04
61018;BME280;48171;51.550;5.434;2023-04-27T00:09:51;102092.84;;;5.66;74.78
61018;BME280;48171;51.550;5.434;2023-04-27T00:12:24;102040.88;;;5.27;76.13
61018;BME280;48171;51.550;5.434;2023-04-27T00:14:50;102089.13;;;5.59;74.68
61018;BME280;48171;51.550;5.434;2023-04-27T00:17:19;102086.19;;;5.50;75.59
61018;BME280;48171;51.550;5.434;2023-04-27T00:19:49;102052.03;;;5.21;76.03
61018;BME280;48171;51.550;5.434;2023-04-27T00:22:29;102051.97;;;5.20;75.94
61018;BME280;48171;51.550;5.434;2023-04-27T00:28:06;102089.28;;;5.38;76.36
61018;BME280;48171;51.550;5.434;2023-04-27T00:30:39;102058.00;;;5.17;76.21
61018;BME280;48171;51.550;5.434;2023-04-27T00:36:16;102054.22;;;5.09;76.44
61018;BME280;48171;51.550;5.434;2023-04-27T00:38:44;102093.88;;;5.20;76.58
61018;BME280;48171;51.550;5.434;2023-04-27T00:41:15;102095.50;;;5.16;77.13
61018;BME280;48171;51.550;5.434;2023-04-27T00:43:54;102060.94;;;5.01;77.30
61018;BME280;48171;51.550;5.434;2023-04-27T00:46:47;102060.88;;;4.99;77.01
61018;BME280;48171;51.550;5.434;2023-04-27T00:49:18;102092.06;;;5.17;77.56
61018;BME280;48171;51.550;5.434;2023-04-27T00:51:44;102063.34;;;4.95;77.44
61018;BME280;48171;51.550;5.434;2023-04-27T01:02:00;102033.09;;;4.79;77.83
61018;BME280;48171;51.550;5.434;2023-04-27T01:04:29;102078.47;;;5.04;77.95
61018;BME280;48171;51.550;5.434;2023-04-27T01:06:56;102049.03;;;4.87;77.90
61018;BME280;48171;51.550;5.434;2023-04-27T01:09:31;102029.47;;;4.75;78.06
61018;BME280;48171;51.550;5.434;2023-04-27T01:12:06;102043.59;;;4.80;77.87
61018;BME280;48171;51.550;5.434;2023-04-27T01:14:37;102047.13;;;4.81;78.08
61018;BME280;48171;51.550;5.434;2023-04-27T01:17:05;102059.19;;;4.77;77.84
61018;BME280;48171;51.550;5.434;2023-04-27T01:19:33;102058.13;;;4.72;78.86
61018;BME280;48171;51.550;5.434;2023-04-27T01:22:05;102052.50;;;4.61;79.21
61018;BME280;48171;51.550;5.434;2023-04-27T01:24:44;102064.06;;;4.67;78.88
61018;BME280;48171;51.550;5.434;2023-04-27T01:27:13;102086.41;;;4.81;78.68
61018;BME280;48171;51.550;5.434;2023-04-27T01:29:38;102077.97;;;4.66;79.12
61018;BME280;48171;51.550;5.434;2023-04-27T01:32:07;102069.06;;;4.60;79.33
61018;BME280;48171;51.550;5.434;2023-04-27T01:34:35;102057.44;;;4.54;79.95
61018;BME280;48171;51.550;5.434;2023-04-27T01:37:07;102055.78;;;4.56;79.90
61018;BME280;48171;51.550;5.434;2023-04-27T01:39:32;102053.06;;;4.53;79.76
61018;BME280;48171;51.550;5.434;2023-04-27T01:42:01;102045.97;;;4.50;79.62
61018;BME280;48171;51.550;5.434;2023-04-27T01:47:46;102049.38;;;4.48;79.24
61018;BME280;48171;51.550;5.434;2023-04-27T01:50:17;102073.31;;;4.58;79.34
61018;BME280;48171;51.550;5.434;2023-04-27T01:52:51;102038.44;;;4.35;80.46
61018;BME280;48171;51.550;5.434;2023-04-27T01:55:19;102028.59;;;4.28;80.90
61018;BME280;48171;51.550;5.434;2023-04-27T01:57:47;102065.78;;;4.44;81.40
61018;BME280;48171;51.550;5.434;2023-04-27T02:00:15;102046.84;;;4.27;81.31
61018;BME280;48171;51.550;5.434;2023-04-27T02:02:41;102053.44;;;4.17;81.25
61018;BME280;48171;51.550;5.434;2023-04-27T02:05:12;102078.19;;;4.25;81.15
61018;BME280;48171;51.550;5.434;2023-04-27T02:07:38;102043.16;;;3.99;82.41
61018;BME280;48171;51.550;5.434;2023-04-27T02:10:18;102021.94;;;3.91;82.57
61018;BME280;48171;51.550;5.434;2023-04-27T02:12:50;102074.25;;;4.14;82.71
61018;BME280;48171;51.550;5.434;2023-04-27T02:15:17;102045.78;;;3.99;82.74
61018;BME280;48171;51.550;5.434;2023-04-27T02:17:57;102028.91;;;3.91;82.17
61018;BME280;48171;51.550;5.434;2023-04-27T02:20:28;102048.53;;;4.02;82.53
61018;BME280;48171;51.550;5.434;2023-04-27T02:22:57;102052.13;;;4.06;82.55
61018;BME280;48171;51.550;5.434;2023-04-27T02:25:26;102031.44;;;3.89;82.12
61018;BME280;48171;51.550;5.434;2023-04-27T02:27:56;102038.34;;;3.87;81.81
61018;BME280;48171;51.550;5.434;2023-04-27T02:30:22;102033.00;;;3.84;82.11
61018;BME280;48171;51.550;5.434;2023-04-27T02:32:47;102019.72;;;3.79;82.01
61018;BME280;48171;51.550;5.434;2023-04-27T02:35:13;102017.91;;;3.77;82.18
61018;BME280;48171;51.550;5.434;2023-04-27T02:37:41;102012.97;;;3.62;82.24
61018;BME280;48171;51.550;5.434;2023-04-27T02:40:07;102010.53;;;3.67;82.89
61018;BME280;48171;51.550;5.434;2023-04-27T02:42:36;102015.69;;;3.65;83.88
61018;BME280;48171;51.550;5.434;2023-04-27T02:45:06;102030.72;;;3.71;84.49
61018;BME280;48171;51.550;5.434;2023-04-27T02:47:32;102009.50;;;3.63;84.38
61018;BME280;48171;51.550;5.434;2023-04-27T02:49:58;102035.22;;;3.75;84.66
61018;BME280;48171;51.550;5.434;2023-04-27T02:52:23;102015.50;;;3.60;84.36
61018;BME280;48171;51.550;5.434;2023-04-27T02:54:49;102035.94;;;3.71;84.36
61018;BME280;48171;51.550;5.434;2023-04-27T02:57:14;102050.16;;;3.77;84.19
61018;BME280;48171;51.550;5.434;2023-04-27T02:59:39;102047.34;;;3.73;84.16
61018;BME280;48171;51.550;5.434;2023-04-27T03:02:04;102049.16;;;3.74;83.50
61018;BME280;48171;51.550;5.434;2023-04-27T03:04:30;102054.50;;;3.77;83.76
61018;BME280;48171;51.550;5.434;2023-04-27T03:06:55;102047.50;;;3.76;83.89
61018;BME280;48171;51.550;5.434;2023-04-27T03:09:20;102049.16;;;3.74;83.35
61018;BME280;48171;51.550;5.434;2023-04-27T03:11:46;102054.25;;;3.71;83.75
61018;BME280;48171;51.550;5.434;2023-04-27T03:14:11;102043.78;;;3.71;83.32
61018;BME280;48171;51.550;5.434;2023-04-27T03:16:37;102049.78;;;3.68;83.25
61018;BME280;48171;51.550;5.434;2023-04-27T03:19:03;102049.78;;;3.68;83.78
61018;BME280;48171;51.550;5.434;2023-04-27T03:21:28;102049.78;;;3.68;83.75
61018;BME280;48171;51.550;5.434;2023-04-27T03:23:53;102048.84;;;3.66;83.35
61018;BME280;48171;51.550;5.434;2023-04-27T03:26:19;102059.03;;;3.60;83.29
61018;BME280;48171;51.550;5.434;2023-04-27T03:28:45;102057.13;;;3.56;83.79
61018;BME280;48171;51.550;5.434;2023-04-27T03:31:12;102063.25;;;3.56;84.87
61018;BME280;48171;51.550;5.434;2023-04-27T03:33:38;102063.25;;;3.56;85.12
61018;BME280;48171;51.550;5.434;2023-04-27T03:36:05;102063.16;;;3.55;85.03
61018;BME280;48171;51.550;5.434;2023-04-27T03:38:31;102066.66;;;3.55;85.44
61018;BME280;48171;51.550;5.434;2023-04-27T03:40:56;102067.50;;;3.54;85.09
61018;BME280;48171;51.550;5.434;2023-04-27T03:43:22;102069.41;;;3.58;84.75
61018;BME280;48171;51.550;5.434;2023-04-27T03:45:48;102073.69;;;3.56;84.25
61018;BME280;48171;51.550;5.434;2023-04-27T03:48:13;102064.81;;;3.53;84.21
61018;BME280;48171;51.550;5.434;2023-04-27T03:50:40;102066.41;;;3.49;83.83
61018;BME280;48171;51.550;5.434;2023-04-27T03:53:05;102071.59;;;3.48;84.07
61018;BME280;48171;51.550;5.434;2023-04-27T03:55:31;102067.88;;;3.43;84.35
61018;BME280;48171;51.550;5.434;2023-04-27T03:57:56;102073.97;;;3.42;84.55
61018;BME280;48171;51.550;5.434;2023-04-27T04:00:22;102076.50;;;3.40;84.64
61018;BME280;48171;51.550;5.434;2023-04-27T04:02:47;102071.19;;;3.38;84.52
61018;BME280;48171;51.550;5.434;2023-04-27T04:05:12;102076.31;;;3.35;84.61
61018;BME280;48171;51.550;5.434;2023-04-27T04:07:39;102070.06;;;3.32;84.63
61018;BME280;48171;51.550;5.434;2023-04-27T04:10:08;102068.25;;;3.31;84.64
61018;BME280;48171;51.550;5.434;2023-04-27T04:12:34;102069.91;;;3.29;84.94
61018;BME280;48171;51.550;5.434;2023-04-27T04:14:59;102060.38;;;3.29;84.66
61018;BME280;48171;51.550;5.434;2023-04-27T04:17:25;102072.59;;;3.30;84.63
61018;BME280;48171;51.550;5.434;2023-04-27T04:19:50;102077.91;;;3.32;84.53
61018;BME280;48171;51.550;5.434;2023-04-27T04:22:15;102079.56;;;3.30;84.67
61018;BME280;48171;51.550;5.434;2023-04-27T04:24:41;102090.06;;;3.31;84.84
61018;BME280;48171;51.550;5.434;2023-04-27T04:27:06;102076.09;;;3.31;84.92
61018;BME280;48171;51.550;5.434;2023-04-27T04:29:32;102090.88;;;3.30;85.22
61018;BME280;48171;51.550;5.434;2023-04-27T04:31:58;102089.13;;;3.29;85.93
61018;BME280;48171;51.550;5.434;2023-04-27T04:34:23;102085.50;;;3.27;86.71
61018;BME280;48171;51.550;5.434;2023-04-27T04:36:48;102095.97;;;3.27;87.00
61018;BME280;48171;51.550;5.434;2023-04-27T04:39:17;102098.47;;;3.24;85.82
61018;BME280;48171;51.550;5.434;2023-04-27T04:41:46;102095.66;;;3.19;85.32
61018;BME280;48171;51.550;5.434;2023-04-27T04:44:13;102098.88;;;3.14;85.55
61018;BME280;48171;51.550;5.434;2023-04-27T04:46:38;102103.06;;;3.10;85.90
61018;BME280;48171;51.550;5.434;2023-04-27T04:49:03;102109.34;;;3.14;86.49
61018;BME280;48171;51.550;5.434;2023-04-27T04:51:29;102114.47;;;3.12;87.11
61018;BME280;48171;51.550;5.434;2023-04-27T04:53:54;102112.91;;;3.16;87.07
61018;BME280;48171;51.550;5.434;2023-04-27T04:56:20;102104.31;;;3.18;87.68
61018;BME280;48171;51.550;5.434;2023-04-27T04:58:45;102104.38;;;3.20;87.44
61018;BME280;48171;51.550;5.434;2023-04-27T05:01:10;102108.91;;;3.24;87.10
61018;BME280;48171;51.550;5.434;2023-04-27T05:03:36;102105.59;;;3.28;88.02
61018;BME280;48171;51.550;5.434;2023-04-27T05:06:01;102102.09;;;3.28;88.06
61018;BME280;48171;51.550;5.434;2023-04-27T05:08:27;102110.13;;;3.32;87.99
61018;BME280;48171;51.550;5.434;2023-04-27T05:10:53;102117.97;;;3.32;87.79
61018;BME280;48171;51.550;5.434;2023-04-27T05:13:19;102114.56;;;3.35;87.95
61018;BME280;48171;51.550;5.434;2023-04-27T05:15:45;102125.19;;;3.38;88.16
61018;BME280;48171;51.550;5.434;2023-04-27T05:18:10;102119.19;;;3.40;88.23
61018;BME280;48171;51.550;5.434;2023-04-27T05:20:36;102108.91;;;3.45;88.55
61018;BME280;48171;51.550;5.434;2023-04-27T05:23:02;102107.25;;;3.47;88.55
61018;BME280;48171;51.550;5.434;2023-04-27T05:25:31;102114.38;;;3.50;88.86
61018;BME280;48171;51.550;5.434;2023-04-27T05:27:57;102103.91;;;3.50;89.26
61018;BME280;48171;51.550;5.434;2023-04-27T05:30:22;102112.63;;;3.50;89.02
61018;BME280;48171;51.550;5.434;2023-04-27T05:32:48;102112.63;;;3.50;88.74
61018;BME280;48171;51.550;5.434;2023-04-27T05:35:13;102119.59;;;3.50;89.38
61018;BME280;48171;51.550;5.434;2023-04-27T05:37:39;102111.75;;;3.50;89.50
61018;BME280;48171;51.550;5.434;2023-04-27T05:40:10;102118.66;;;3.49;89.55
61018;BME280;48171;51.550;5.434;2023-04-27T05:42:57;102119.06;;;3.58;89.19
61018;BME280;48171;51.550;5.434;2023-04-27T05:45:26;102122.66;;;3.60;88.96
61018;BME280;48171;51.550;5.434;2023-04-27T05:47:52;102129.78;;;3.65;89.62
61018;BME280;48171;51.550;5.434;2023-04-27T05:50:17;102128.91;;;3.64;89.77
61018;BME280;48171;51.550;5.434;2023-04-27T05:52:43;102129.84;;;3.66;89.74
61018;BME280;48171;51.550;5.434;2023-04-27T05:55:11;102130.81;;;3.68;90.16
61018;BME280;48171;51.550;5.434;2023-04-27T05:57:38;102122.09;;;3.68;90.31
61018;BME280;48171;51.550;5.434;2023-04-27T06:00:04;102126.41;;;3.67;90.48
61018;BME280;48171;51.550;5.434;2023-04-27T06:02:35;102119.31;;;3.65;90.53
61018;BME280;48171;51.550;5.434;2023-04-27T06:05:00;102111.50;;;3.65;90.83
61018;BME280;48171;51.550;5.434;2023-04-27T06:07:25;102131.19;;;3.77;90.79
61018;BME280;48171;51.550;5.434;2023-04-27T06:09:51;102131.25;;;3.79;91.45
61018;BME280;48171;51.550;5.434;2023-04-27T06:12:17;102140.19;;;3.84;91.57
61018;BME280;48171;51.550;5.434;2023-04-27T06:14:43;102126.09;;;3.80;91.50
61018;BME280;48171;51.550;5.434;2023-04-27T06:17:08;102122.78;;;3.85;91.96
61018;BME280;48171;51.550;5.434;2023-04-27T06:19:34;102127.47;;;3.93;92.21
61018;BME280;48171;51.550;5.434;2023-04-27T06:22:00;102110.84;;;3.91;92.13
61018;BME280;48171;51.550;5.434;2023-04-27T06:24:25;102127.88;;;4.03;92.02
61018;BME280;48171;51.550;5.434;2023-04-27T06:26:53;102123.66;;;4.06;92.20
61018;BME280;48171;51.550;5.434;2023-04-27T06:29:19;102123.91;;;4.12;91.91
61018;BME280;48171;51.550;5.434;2023-04-27T06:31:44;102110.81;;;4.12;91.46
61018;BME280;48171;51.550;5.434;2023-04-27T06:34:11;102121.63;;;4.21;90.25
61018;BME280;48171;51.550;5.434;2023-04-27T06:36:36;102122.78;;;4.28;89.77
61018;BME280;48171;51.550;5.434;2023-04-27T06:39:02;102110.38;;;4.24;90.03
61018;BME280;48171;51.550;5.434;2023-04-27T06:41:28;102125.75;;;4.37;89.76
61018;BME280;48171;51.550;5.434;2023-04-27T06:43:54;102119.69;;;4.38;90.19
61018;BME280;48171;51.550;5.434;2023-04-27T06:46:19;102132.34;;;4.50;89.64
61018;BME280;48171;51.550;5.434;2023-04-27T06:48:45;102121.13;;;4.53;89.08
61018;BME280;48171;51.550;5.434;2023-04-27T06:51:11;102117.72;;;4.55;88.97
61018;BME280;48171;51.550;5.434;2023-04-27T06:53:40;102124.13;;;4.64;90.02
61018;BME280;48171;51.550;5.434;2023-04-27T06:56:09;102117.22;;;4.66;89.66
61018;BME280;48171;51.550;5.434;2023-04-27T06:58:35;102119.19;;;4.71;90.05
61018;BME280;48171;51.550;5.434;2023-04-27T07:01:01;102114.19;;;4.77;89.88
61018;BME280;48171;51.550;5.434;2023-04-27T07:03:28;102117.13;;;4.87;91.50
61018;BME280;48171;51.550;5.434;2023-04-27T07:05:53;102114.78;;;4.94;90.27
61018;BME280;48171;51.550;5.434;2023-04-27T07:08:18;102115.88;;;4.99;90.87
61018;BME280;48171;51.550;5.434;2023-04-27T07:10:43;102105.53;;;5.04;90.52
61018;BME280;48171;51.550;5.434;2023-04-27T07:13:09;102109.25;;;5.09;90.76
61018;BME280;48171;51.550;5.434;2023-04-27T07:15:35;102109.59;;;5.20;89.84
61018;BME280;48171;51.550;5.434;2023-04-27T07:18:01;102110.72;;;5.27;89.81
61018;BME280;48171;51.550;5.434;2023-04-27T07:20:26;102116.22;;;5.34;89.24
61018;BME280;48171;51.550;5.434;2023-04-27T07:22:52;102110.41;;;5.43;89.08
61018;BME280;48171;51.550;5.434;2023-04-27T07:25:18;102108.72;;;5.45;89.36
61018;BME280;48171;51.550;5.434;2023-04-27T07:27:43;102106.38;;;5.53;89.93
61018;BME280;48171;51.550;5.434;2023-04-27T07:30:09;102111.75;;;5.57;88.87
61018;BME280;48171;51.550;5.434;2023-04-27T07:32:43;102116.53;;;5.69;88.66
61018;BME280;48171;51.550;5.434;2023-04-27T07:35:09;102114.09;;;5.74;87.83
61018;BME280;48171;51.550;5.434;2023-04-27T07:37:35;102113.44;;;5.81;87.90
61018;BME280;48171;51.550;5.434;2023-04-27T07:40:04;102110.19;;;5.88;89.62
61018;BME280;48171;51.550;5.434;2023-04-27T07:42:40;102114.97;;;6.00;89.60
61018;BME280;48171;51.550;5.434;2023-04-27T07:45:08;102111.88;;;6.13;88.87
61018;BME280;48171;51.550;5.434;2023-04-27T07:47:34;102112.13;;;6.21;86.87
61018;BME280;48171;51.550;5.434;2023-04-27T07:49:59;102108.88;;;6.28;86.13
61018;BME280;48171;51.550;5.434;2023-04-27T07:52:25;102113.44;;;6.35;85.85
61018;BME280;48171;51.550;5.434;2023-04-27T07:54:50;102121.56;;;6.43;84.51
61018;BME280;48171;51.550;5.434;2023-04-27T07:57:16;102114.69;;;6.48;84.11
61018;BME280;48171;51.550;5.434;2023-04-27T07:59:41;102122.75;;;6.54;83.84
61018;BME280;48171;51.550;5.434;2023-04-27T08:02:07;102112.47;;;6.60;85.28
61018;BME280;48171;51.550;5.434;2023-04-27T08:04:35;102106.47;;;6.66;84.61
61018;BME280;48171;51.550;5.434;2023-04-27T08:07:00;102110.28;;;6.76;82.47
61018;BME280;48171;51.550;5.434;2023-04-27T08:09:26;102113.03;;;6.80;82.35
61018;BME280;48171;51.550;5.434;2023-04-27T08:11:53;102107.06;;;6.86;82.85
61018;BME280;48171;51.550;5.434;2023-04-27T08:14:19;102117.13;;;7.01;81.79
61018;BME280;48171;51.550;5.434;2023-04-27T08:16:44;102105.88;;;7.07;80.48
61018;BME280;48171;51.550;5.434;2023-04-27T08:19:10;102112.22;;;7.15;79.60
61018;BME280;48171;51.550;5.434;2023-04-27T08:21:36;102119.44;;;7.22;80.17
61018;BME280;48171;51.550;5.434;2023-04-27T08:24:05;102115.34;;;7.32;79.58
61018;BME280;48171;51.550;5.434;2023-04-27T08:26:32;102102.25;;;7.33;77.31
61018;BME280;48171;51.550;5.434;2023-04-27T08:29:03;102103.41;;;7.45;78.68
61018;BME280;48171;51.550;5.434;2023-04-27T08:31:29;102100.97;;;7.52;80.20
61018;BME280;48171;51.550;5.434;2023-04-27T08:33:55;102094.22;;;7.62;81.11
61018;BME280;48171;51.550;5.434;2023-04-27T08:36:21;102093.53;;;7.71;79.19
61018;BME280;48171;51.550;5.434;2023-04-27T08:38:51;102091.06;;;7.77;77.89
61018;BME280;48171;51.550;5.434;2023-04-27T08:41:21;102088.53;;;7.81;77.57
61018;BME280;48171;51.550;5.434;2023-04-27T08:43:47;102078.94;;;7.84;74.53
61018;BME280;48171;51.550;5.434;2023-04-27T08:46:23;102083.47;;;7.89;75.02
61018;BME280;48171;51.550;5.434;2023-04-27T08:48:52;102082.78;;;7.96;71.81
61018;BME280;48171;51.550;5.434;2023-04-27T08:51:18;102082.09;;;8.05;74.60
61018;BME280;48171;51.550;5.434;2023-04-27T08:53:52;102092.81;;;8.13;75.06
61018;BME280;48171;51.550;5.434;2023-04-27T08:56:18;102077.97;;;8.16;74.80
61018;BME280;48171;51.550;5.434;2023-04-27T08:58:44;102089.59;;;8.26;71.28
61018;BME280;48171;51.550;5.434;2023-04-27T09:01:09;102086.19;;;8.32;68.50
61018;BME280;48171;51.550;5.434;2023-04-27T09:03:35;102094.22;;;8.36;68.70
61018;BME280;48171;51.550;5.434;2023-04-27T09:06:02;102083.81;;;8.41;68.42
61018;BME280;48171;51.550;5.434;2023-04-27T09:08:28;102084.88;;;8.49;69.65
61018;BME280;48171;51.550;5.434;2023-04-27T09:10:53;102085.03;;;8.57;69.44
61018;BME280;48171;51.550;5.434;2023-04-27T09:13:19;102081.63;;;8.61;68.10
61018;BME280;48171;51.550;5.434;2023-04-27T09:15:47;102085.28;;;8.69;69.45
61018;BME280;48171;51.550;5.434;2023-04-27T09:18:22;102083.63;;;8.74;67.35
61018;BME280;48171;51.550;5.434;2023-04-27T09:20:52;102084.66;;;8.82;69.43
61018;BME280;48171;51.550;5.434;2023-04-27T09:23:28;102078.63;;;8.88;66.26
61018;BME280;48171;51.550;5.434;2023-04-27T09:25:54;102081.38;;;8.94;64.01
61018;BME280;48171;51.550;5.434;2023-04-27T09:28:21;102078.91;;;9.02;65.06
61018;BME280;48171;51.550;5.434;2023-04-27T09:30:54;102079.09;;;9.13;66.42
61018;BME280;48171;51.550;5.434;2023-04-27T09:33:30;102085.44;;;9.23;65.69
61018;BME280;48171;51.550;5.434;2023-04-27T09:35:57;102077.69;;;9.30;66.07
61018;BME280;48171;51.550;5.434;2023-04-27T09:38:23;102062.88;;;9.38;64.87
61018;BME280;48171;51.550;5.434;2023-04-27T09:40:50;102071.84;;;9.48;65.19
61018;BME280;48171;51.550;5.434;2023-04-27T09:43:16;102071.88;;;9.50;58.46
61018;BME280;48171;51.550;5.434;2023-04-27T09:45:42;102072.81;;;9.55;61.46
61018;BME280;48171;51.550;5.434;2023-04-27T09:48:08;102069.41;;;9.60;61.67
61018;BME280;48171;51.550;5.434;2023-04-27T09:50:40;102058.03;;;9.65;61.22
61018;BME280;48171;51.550;5.434;2023-04-27T09:53:08;102068.66;;;9.69;61.04
61018;BME280;48171;51.550;5.434;2023-04-27T09:58:28;102059.19;;;9.80;62.78
61018;BME280;48171;51.550;5.434;2023-04-27T10:01:23;102058.41;;;9.86;61.67
61018;BME280;48171;51.550;5.434;2023-04-27T10:04:12;102061.16;;;9.94;59.96
61018;BME280;48171;51.550;5.434;2023-04-27T10:07:00;102055.88;;;9.95;60.48
61018;BME280;48171;51.550;5.434;2023-04-27T10:09:27;102043.53;;;9.93;56.83
61018;BME280;48171;51.550;5.434;2023-04-27T10:11:55;102059.50;;;10.00;55.56
61018;BME280;48171;51.550;5.434;2023-04-27T10:14:23;102048.88;;;9.96;56.49
61018;BME280;48171;51.550;5.434;2023-04-27T10:16:53;102050.75;;;10.05;58.21
61018;BME280;48171;51.550;5.434;2023-04-27T10:19:20;102054.34;;;10.11;59.75
61018;BME280;48171;51.550;5.434;2023-04-27T10:21:53;102060.59;;;10.16;59.38
61018;BME280;48171;51.550;5.434;2023-04-27T10:24:37;102058.91;;;10.21;57.70
61018;BME280;48171;51.550;5.434;2023-04-27T10:27:07;102064.25;;;10.25;56.42
61018;BME280;48171;51.550;5.434;2023-04-27T10:29:41;102065.16;;;10.27;56.34
61018;BME280;48171;51.550;5.434;2023-04-27T10:32:08;102065.16;;;10.27;54.16
61018;BME280;48171;51.550;5.434;2023-04-27T10:34:35;102057.25;;;10.28;55.19
61018;BME280;48171;51.550;5.434;2023-04-27T10:37:09;102059.94;;;10.30;53.34
61018;BME280;48171;51.550;5.434;2023-04-27T10:39:39;102055.56;;;10.30;55.36
61018;BME280;48171;51.550;5.434;2023-04-27T10:42:04;102057.38;;;10.36;56.75
61018;BME280;48171;51.550;5.434;2023-04-27T10:44:32;102049.47;;;10.37;52.37
61018;BME280;48171;51.550;5.434;2023-04-27T10:46:59;102050.34;;;10.38;51.96
61018;BME280;48171;51.550;5.434;2023-04-27T10:49:28;102048.63;;;10.38;52.53
61018;BME280;48171;51.550;5.434;2023-04-27T10:51:56;102041.53;;;10.37;50.71
61018;BME280;48171;51.550;5.434;2023-04-27T10:54:25;102045.06;;;10.38;52.76
61018;BME280;48171;51.550;5.434;2023-04-27T10:56:52;102037.16;;;10.39;51.88
61018;BME280;48171;51.550;5.434;2023-04-27T10:59:17;102040.78;;;10.48;55.17
61018;BME280;48171;51.550;5.434;2023-04-27T11:01:47;102037.38;;;10.55;52.27
61018;BME280;48171;51.550;5.434;2023-04-27T11:04:13;102034.81;;;10.63;55.36
61018;BME280;48171;51.550;5.434;2023-04-27T11:06:42;102029.66;;;10.73;53.90
61018;BME280;48171;51.550;5.434;2023-04-27T11:09:08;102025.38;;;10.83;54.11
61018;BME280;48171;51.550;5.434;2023-04-27T11:11:35;102014.84;;;10.89;55.17
61018;BME280;48171;51.550;5.434;2023-04-27T11:14:00;102014.88;;;10.92;50.46
61018;BME280;48171;51.550;5.434;2023-04-27T11:16:27;102014.00;;;10.92;51.54
61018;BME280;48171;51.550;5.434;2023-04-27T11:18:52;102007.03;;;11.00;54.73
61018;BME280;48171;51.550;5.434;2023-04-27T11:21:18;102008.81;;;11.02;53.71
61018;BME280;48171;51.550;5.434;2023-04-27T11:23:47;102000.84;;;10.99;49.75
61018;BME280;48171;51.550;5.434;2023-04-27T11:26:14;101999.97;;;10.99;52.04
61018;BME280;48171;51.550;5.434;2023-04-27T11:28:41;101999.16;;;11.08;53.19
61018;BME280;48171;51.550;5.434;2023-04-27T11:31:06;101998.34;;;11.13;51.57
61018;BME280;48171;51.550;5.434;2023-04-27T11:33:32;102000.09;;;11.14;52.49
61018;BME280;48171;51.550;5.434;2023-04-27T11:35:58;101993.00;;;11.10;50.24
61018;BME280;48171;51.550;5.434;2023-04-27T11:38:23;101992.16;;;11.14;51.67
61018;BME280;48171;51.550;5.434;2023-04-27T11:41:04;101994.00;;;11.21;53.51
61018;BME280;48171;51.550;5.434;2023-04-27T11:43:30;101987.84;;;11.24;50.58
61018;BME280;48171;51.550;5.434;2023-04-27T11:45:56;101987.88;;;11.29;52.35
61018;BME280;48171;51.550;5.434;2023-04-27T11:48:23;101982.69;;;11.39;55.88
61018;BME280;48171;51.550;5.434;2023-04-27T11:50:49;101981.88;;;11.50;53.45
61018;BME280;48171;51.550;5.434;2023-04-27T11:53:15;101989.00;;;11.58;52.72
61018;BME280;48171;51.550;5.434;2023-04-27T11:55:41;101989.94;;;11.64;48.48
61018;BME280;48171;51.550;5.434;2023-04-27T11:58:14;101984.66;;;11.64;48.57
61018;BME280;48171;51.550;5.434;2023-04-27T12:00:39;101982.84;;;11.63;47.16
61018;BME280;48171;51.550;5.434;2023-04-27T12:03:05;101980.25;;;11.66;47.99
61018;BME280;48171;51.550;5.434;2023-04-27T12:05:31;101973.19;;;11.69;49.56
61018;BME280;48171;51.550;5.434;2023-04-27T12:07:56;101974.13;;;11.79;49.03
61018;BME280;48171;51.550;5.434;2023-04-27T12:10:22;101970.63;;;11.83;46.47
61018;BME280;48171;51.550;5.434;2023-04-27T12:12:48;101971.53;;;11.82;45.07
61018;BME280;48171;51.550;5.434;2023-04-27T12:15:13;101963.56;;;11.80;49.77
61018;BME280;48171;51.550;5.434;2023-04-27T12:17:39;101973.28;;;11.85;46.29
61018;BME280;48171;51.550;5.434;2023-04-27T12:20:05;101968.00;;;11.81;47.50
61018;BME280;48171;51.550;5.434;2023-04-27T12:22:30;101965.34;;;11.81;46.86
61018;BME280;48171;51.550;5.434;2023-04-27T12:24:55;101962.69;;;11.81;47.27
61018;BME280;48171;51.550;5.434;2023-04-27T12:27:21;101960.03;;;11.80;46.26
61018;BME280;48171;51.550;5.434;2023-04-27T12:29:47;101961.78;;;11.81;46.36
61018;BME280;48171;51.550;5.434;2023-04-27T12:32:12;101953.88;;;11.84;47.18
61018;BME280;48171;51.550;5.434;2023-04-27T12:34:37;101945.06;;;11.84;47.19
61018;BME280;48171;51.550;5.434;2023-04-27T12:37:04;101953.94;;;11.89;45.54
61018;BME280;48171;51.550;5.434;2023-04-27T12:39:29;101957.47;;;11.91;45.67
61018;BME280;48171;51.550;5.434;2023-04-27T12:41:55;101946.00;;;11.93;45.81
61018;BME280;48171;51.550;5.434;2023-04-27T12:44:21;101938.94;;;11.95;47.30
61018;BME280;48171;51.550;5.434;2023-04-27T12:46:46;101946.91;;;12.01;46.43
61018;BME280;48171;51.550;5.434;2023-04-27T12:49:12;101943.41;;;12.04;45.37
61018;BME280;48171;51.550;5.434;2023-04-27T12:51:38;101946.97;;;12.06;44.27
61018;BME280;48171;51.550;5.434;2023-04-27T12:54:04;101948.75;;;12.13;46.11
61018;BME280;48171;51.550;5.434;2023-04-27T12:56:32;101942.59;;;12.20;48.16
61018;BME280;48171;51.550;5.434;2023-04-27T12:58:57;101950.59;;;12.28;47.71
61018;BME280;48171;51.550;5.434;2023-04-27T13:01:22;101939.97;;;12.31;44.88
61018;BME280;48171;51.550;5.434;2023-04-27T13:03:51;101936.44;;;12.34;43.32
61018;BME280;48171;51.550;5.434;2023-04-27T13:06:17;101932.94;;;12.36;44.15
61018;BME280;48171;51.550;5.434;2023-04-27T13:08:43;101932.06;;;12.44;43.96
61018;BME280;48171;51.550;5.434;2023-04-27T13:11:08;101932.97;;;12.49;46.45
61018;BME280;48171;51.550;5.434;2023-04-27T13:13:33;101938.28;;;12.58;47.14
61018;BME280;48171;51.550;5.434;2023-04-27T13:15:59;101928.56;;;12.66;46.71
61018;BME280;48171;51.550;5.434;2023-04-27T13:18:24;101933.00;;;12.72;46.24